createdAt,value
2022-09-20T00:01:32.600Z,93401.97
2022-09-20T00:04:05.528Z,93396.91
2022-09-20T00:06:33.888Z,93403.22
2022-09-20T00:09:03.243Z,93395.31
2022-09-20T00:11:33.223Z,93399.59
2022-09-20T00:14:02.215Z,93404.91
2022-09-20T00:16:35.627Z,93405.00
2022-09-20T00:19:05.174Z,93416.50
2022-09-20T00:21:36.527Z,93407.84
2022-09-20T00:24:04.509Z,93410.94
2022-09-20T00:26:31.946Z,93413.78
2022-09-20T00:29:00.324Z,93405.16
2022-09-20T00:31:27.997Z,93402.59
2022-09-20T00:34:15.580Z,93413.09
2022-09-20T00:36:44.286Z,93412.75
2022-09-20T00:39:13.517Z,93405.12
2022-09-20T00:41:40.695Z,93414.03
2022-09-20T00:44:50.067Z,93414.81
2022-09-20T00:47:28.297Z,93413.28
2022-09-20T00:50:35.978Z,93410.53
2022-09-20T00:53:14.412Z,93415.19
2022-09-20T00:55:47.491Z,93409.41
2022-09-20T00:58:15.521Z,93404.25
2022-09-20T01:00:45.371Z,93398.34
2022-09-20T01:03:16.160Z,93404.50
2022-09-20T01:05:45.363Z,93404.53
2022-09-20T01:08:13.205Z,93405.50
2022-09-20T01:10:40.493Z,93399.56
2022-09-20T01:13:08.587Z,93395.84
2022-09-20T01:15:38.914Z,93396.12
2022-09-20T01:18:08.612Z,93398.25
2022-09-20T01:20:41.021Z,93396.28
2022-09-20T01:23:15.955Z,93394.44
2022-09-20T01:25:58.810Z,93389.72
2022-09-20T01:28:28.814Z,93389.75
2022-09-20T01:31:04.714Z,93397.59
2022-09-20T01:33:34.860Z,93393.41
2022-09-20T01:36:06.356Z,93400.56
2022-09-20T01:38:40.112Z,93405.53
2022-09-20T01:41:27.191Z,93399.97
2022-09-20T01:44:09.629Z,93388.00
2022-09-20T01:46:38.207Z,93387.50
2022-09-20T01:49:33.770Z,93388.88
2022-09-20T01:52:47.688Z,93394.75
2022-09-20T01:56:03.218Z,93396.34
2022-09-20T01:58:46.967Z,93399.41
2022-09-20T02:01:39.043Z,93396.78
2022-09-20T02:04:37.860Z,93396.00
2022-09-20T02:07:23.447Z,93390.44
2022-09-20T02:10:11.241Z,93389.19
2022-09-20T02:12:56.162Z,93381.25
2022-09-20T02:15:41.511Z,93385.19
2022-09-20T02:18:31.831Z,93379.34
2022-09-20T02:21:24.183Z,93380.84
2022-09-20T02:24:19.706Z,93378.66
2022-09-20T02:27:16.785Z,93384.81
2022-09-20T02:30:21.995Z,93381.94
2022-09-20T02:33:26.887Z,93374.69
2022-09-20T02:36:27.334Z,93375.59
2022-09-20T02:39:03.199Z,93380.72
2022-09-20T02:41:33.906Z,93383.88
2022-09-20T02:44:22.552Z,93380.25
2022-09-20T02:46:50.740Z,93374.59
2022-09-20T02:49:41.612Z,93373.78
2022-09-20T02:52:56.803Z,93385.37
2022-09-20T02:55:29.901Z,93394.31
2022-09-20T02:58:35.590Z,93396.84
2022-09-20T03:01:24.410Z,93394.91
2022-09-20T03:04:18.300Z,93402.50
2022-09-20T03:06:53.681Z,93402.19
2022-09-20T03:09:39.959Z,93406.16
2022-09-20T03:12:33.606Z,93406.47
2022-09-20T03:15:22.856Z,93413.19
2022-09-20T03:18:08.497Z,93413.09
2022-09-20T03:20:52.427Z,93415.13
2022-09-20T03:24:10.499Z,93411.94
2022-09-20T03:26:55.370Z,93417.47
2022-09-20T03:29:48.521Z,93422.50
2022-09-20T03:32:31.378Z,93418.84
2022-09-20T03:35:01.885Z,93434.62
2022-09-20T03:37:44.776Z,93426.72
2022-09-20T03:40:19.700Z,93426.16
2022-09-20T03:42:52.245Z,93432.63
2022-09-20T03:45:31.871Z,93432.53
2022-09-20T03:48:14.819Z,93430.06
2022-09-20T03:51:00.779Z,93436.81
2022-09-20T03:54:04.377Z,93440.25
2022-09-20T03:56:59.681Z,93440.25
2022-09-20T03:59:56.386Z,93435.28
2022-09-20T04:02:31.459Z,93437.09
2022-09-20T04:05:04.007Z,93438.97
2022-09-20T04:08:07.412Z,93445.06
2022-09-20T04:10:47.024Z,93438.25
2022-09-20T04:13:41.074Z,93442.47
2022-09-20T04:16:32.461Z,93443.59
2022-09-20T04:19:18.355Z,93446.66
2022-09-20T04:21:59.427Z,93459.72
2022-09-20T04:24:57.282Z,93460.00
2022-09-20T04:27:43.130Z,93459.28
2022-09-20T04:30:30.408Z,93454.78
2022-09-20T04:33:06.673Z,93461.75
2022-09-20T04:36:02.513Z,93452.03
2022-09-20T04:38:30.665Z,93466.53
2022-09-20T04:40:58.282Z,93468.94
2022-09-20T04:43:51.356Z,93468.78
2022-09-20T04:46:44.281Z,93467.56
2022-09-20T04:49:30.241Z,93475.44
2022-09-20T04:52:07.007Z,93470.81
2022-09-20T04:54:56.155Z,93480.22
2022-09-20T04:57:23.821Z,93479.88
2022-09-20T05:00:03.321Z,93472.31
2022-09-20T05:02:47.209Z,93472.47
2022-09-20T05:05:17.503Z,93477.25
2022-09-20T05:08:24.043Z,93479.28
2022-09-20T05:11:04.481Z,93476.97
2022-09-20T05:13:38.831Z,93475.00
2022-09-20T05:16:26.684Z,93479.75
2022-09-20T05:19:25.429Z,93472.25
2022-09-20T05:21:59.918Z,93477.88
2022-09-20T05:24:52.981Z,93472.47
2022-09-20T05:27:29.609Z,93470.44
2022-09-20T05:30:04.926Z,93472.16
2022-09-20T05:32:53.005Z,93474.00
2022-09-20T05:36:02.846Z,93477.19
2022-09-20T05:38:34.737Z,93473.72
2022-09-20T05:41:32.663Z,93468.97
2022-09-20T05:44:18.542Z,93471.22
2022-09-20T05:47:18.952Z,93472.59
2022-09-20T05:50:20.250Z,93469.75
2022-09-20T05:53:07.075Z,93476.25
2022-09-20T05:56:22.736Z,93469.56
2022-09-20T05:59:27.723Z,93480.81
2022-09-20T06:02:00.528Z,93467.81
2022-09-20T06:04:58.214Z,93469.75
2022-09-20T06:07:49.856Z,93475.63
2022-09-20T06:10:42.970Z,93472.28
2022-09-20T06:13:41.544Z,93475.28
2022-09-20T06:16:18.740Z,93465.28
2022-09-20T06:18:57.745Z,93473.25
2022-09-20T06:21:36.296Z,93475.81
2022-09-20T06:24:12.902Z,93477.47
2022-09-20T06:26:44.758Z,93474.66
2022-09-20T06:29:14.450Z,93473.06
2022-09-20T06:31:42.191Z,93476.72
2022-09-20T06:34:13.488Z,93467.44
2022-09-20T06:37:09.585Z,93472.75
2022-09-20T06:40:01.854Z,93469.87
2022-09-20T06:42:30.082Z,93476.44
2022-09-20T06:44:58.313Z,93475.94
2022-09-20T06:47:27.401Z,93470.69
2022-09-20T06:49:55.706Z,93471.53
2022-09-20T06:52:23.480Z,93468.19
2022-09-20T06:54:54.894Z,93478.69
2022-09-20T06:57:38.036Z,93482.72
2022-09-20T07:00:07.218Z,93483.50
2022-09-20T07:02:34.975Z,93485.19
2022-09-20T07:05:02.377Z,93492.75
2022-09-20T07:07:29.789Z,93493.28
2022-09-20T07:09:58.684Z,93497.25
2022-09-20T07:12:26.200Z,93496.69
2022-09-20T07:14:53.595Z,93496.03
2022-09-20T07:17:22.343Z,93497.66
2022-09-20T07:19:49.657Z,93503.38
2022-09-20T07:22:17.268Z,93506.72
2022-09-20T07:24:45.119Z,93507.97
2022-09-20T07:27:12.987Z,93503.72
2022-09-20T07:29:41.344Z,93505.22
2022-09-20T07:32:09.315Z,93495.53
2022-09-20T07:34:36.678Z,93502.00
2022-09-20T07:37:04.105Z,93498.87
2022-09-20T07:39:31.813Z,93499.91
2022-09-20T07:41:59.318Z,93502.72
2022-09-20T07:44:28.023Z,93500.72
2022-09-20T07:46:58.276Z,93498.38
2022-09-20T07:49:27.860Z,93497.59
2022-09-20T07:51:56.026Z,93499.47
2022-09-20T07:54:23.410Z,93496.59
2022-09-20T07:56:50.829Z,93494.31
2022-09-20T07:59:18.594Z,93487.31
2022-09-20T08:01:46.179Z,93488.47
2022-09-20T08:04:14.812Z,93486.88
2022-09-20T08:06:44.632Z,93497.00
2022-09-20T08:09:13.263Z,93491.94
2022-09-20T08:11:42.980Z,93482.22
2022-09-20T08:14:17.223Z,93478.81
2022-09-20T08:16:47.549Z,93479.13
2022-09-20T08:19:23.299Z,93485.94
2022-09-20T08:21:53.553Z,93487.28
2022-09-20T08:24:21.416Z,93486.28
2022-09-20T08:26:48.848Z,93487.44
2022-09-20T08:29:16.935Z,93481.25
2022-09-20T08:31:44.501Z,93480.38
2022-09-20T08:34:14.114Z,93477.53
2022-09-20T08:36:47.044Z,93477.53
2022-09-20T08:42:20.669Z,93475.13
2022-09-20T08:45:35.586Z,93461.28
2022-09-20T08:48:07.589Z,93458.53
2022-09-20T08:50:37.547Z,93454.84
2022-09-20T08:53:05.694Z,93464.09
2022-09-20T08:55:36.958Z,93456.94
2022-09-20T08:58:08.735Z,93453.19
2022-09-20T09:00:38.336Z,93444.28
2022-09-20T09:03:18.023Z,93437.44
2022-09-20T09:05:50.123Z,93442.97
2022-09-20T09:08:21.528Z,93445.84
2022-09-20T09:10:54.334Z,93443.25
2022-09-20T09:13:27.917Z,93431.91
2022-09-20T09:16:03.420Z,93436.38
2022-09-20T09:18:35.527Z,93428.72
2022-09-20T09:21:05.126Z,93427.88
2022-09-20T09:23:41.564Z,93436.59
2022-09-20T09:26:18.868Z,93429.78
2022-09-20T09:28:46.622Z,93428.72
2022-09-20T09:31:28.360Z,93415.00
2022-09-20T09:33:56.166Z,93416.03
2022-09-20T09:36:25.882Z,93415.47
2022-09-20T09:39:41.828Z,93406.72
2022-09-20T09:42:26.000Z,93422.34
2022-09-20T09:44:53.494Z,93415.78
2022-09-20T09:47:29.157Z,93411.88
2022-09-20T09:50:01.627Z,93405.12
2022-09-20T09:52:33.552Z,93406.53
2022-09-20T09:55:05.452Z,93405.75
2022-09-20T09:57:59.115Z,93416.47
2022-09-20T10:00:27.522Z,93405.12
2022-09-20T10:03:21.290Z,93401.19
2022-09-20T10:05:48.818Z,93407.09
2022-09-20T10:08:19.369Z,93409.25
2022-09-20T10:11:12.380Z,93398.69
2022-09-20T10:14:06.556Z,93397.91
2022-09-20T10:17:02.496Z,93393.16
2022-09-20T10:19:36.045Z,93386.44
2022-09-20T10:23:14.721Z,93390.09
2022-09-20T10:25:55.261Z,93394.03
2022-09-20T10:28:50.146Z,93395.47
2022-09-20T10:31:44.339Z,93387.59
2022-09-20T10:34:20.986Z,93390.50
2022-09-20T10:36:59.711Z,93390.44
2022-09-20T10:39:39.692Z,93383.34
2022-09-20T10:42:48.502Z,93383.63
2022-09-20T10:48:48.079Z,93389.84
2022-09-20T10:51:25.343Z,93386.44
2022-09-20T10:53:53.003Z,93390.88
2022-09-20T10:56:37.158Z,93388.53
2022-09-20T10:59:25.199Z,93385.37
2022-09-20T11:02:36.715Z,93385.72
2022-09-20T11:05:40.749Z,93386.31
2022-09-20T11:08:13.486Z,93382.53
2022-09-20T11:10:51.803Z,93372.78
2022-09-20T11:13:38.563Z,93369.69
2022-09-20T11:16:23.458Z,93365.66
2022-09-20T11:19:27.146Z,93371.09
2022-09-20T11:22:06.285Z,93355.16
2022-09-20T11:24:41.159Z,93345.09
2022-09-20T11:27:13.749Z,93348.63
2022-09-20T11:29:47.956Z,93353.31
2022-09-20T11:32:24.715Z,93357.03
2022-09-20T11:35:00.298Z,93357.50
2022-09-20T11:37:33.583Z,93354.19
2022-09-20T11:40:18.533Z,93348.09
2022-09-20T11:42:47.150Z,93350.31
2022-09-20T11:45:14.655Z,93350.44
2022-09-20T11:47:54.883Z,93354.06
2022-09-20T11:50:57.327Z,93350.28
2022-09-20T11:53:49.503Z,93341.88
2022-09-20T11:56:32.363Z,93346.94
2022-09-20T11:59:02.994Z,93344.09
2022-09-20T12:01:43.063Z,93334.78
2022-09-20T12:04:33.967Z,93342.34
2022-09-20T12:07:19.077Z,93344.28
2022-09-20T12:09:54.358Z,93335.84
2022-09-20T12:12:41.872Z,93331.72
2022-09-20T12:15:21.800Z,93331.91
2022-09-20T12:17:49.844Z,93321.63
2022-09-20T12:20:33.117Z,93327.44
2022-09-20T12:23:41.405Z,93331.44
2022-09-20T12:26:18.404Z,93324.63
2022-09-20T12:28:51.119Z,93327.81
2022-09-20T12:31:19.095Z,93331.47
2022-09-20T12:34:25.311Z,93324.63
2022-09-20T12:36:56.209Z,93326.22
2022-09-20T12:39:36.745Z,93322.97
2022-09-20T12:42:24.655Z,93317.47
2022-09-20T12:44:52.041Z,93320.09
2022-09-20T12:47:24.458Z,93317.84
2022-09-20T12:50:12.906Z,93323.22
2022-09-20T12:52:58.843Z,93321.31
2022-09-20T12:55:30.142Z,93307.75
2022-09-20T12:58:02.946Z,93323.91
2022-09-20T13:00:57.545Z,93321.47
2022-09-20T13:03:35.379Z,93319.03
2022-09-20T13:06:09.096Z,93324.37
2022-09-20T13:08:42.951Z,93309.75
2022-09-20T13:11:19.519Z,93308.75
2022-09-20T13:13:57.865Z,93316.94
2022-09-20T13:16:31.993Z,93324.91
2022-09-20T13:19:10.668Z,93315.44
2022-09-20T13:21:42.509Z,93319.88
2022-09-20T13:24:18.269Z,93312.50
2022-09-20T13:26:48.164Z,93313.94
2022-09-20T13:29:25.192Z,93314.72
2022-09-20T13:31:52.669Z,93313.50
2022-09-20T13:34:23.750Z,93314.22
2022-09-20T13:36:58.521Z,93313.34
2022-09-20T13:39:44.348Z,93303.97
2022-09-20T13:42:19.944Z,93311.94
2022-09-20T13:44:48.709Z,93310.13
2022-09-20T13:47:26.377Z,93307.69
2022-09-20T13:50:00.977Z,93308.28
2022-09-20T13:52:31.176Z,93301.06
2022-09-20T13:54:58.938Z,93306.00
2022-09-20T13:57:30.731Z,93301.84
2022-09-20T13:59:59.109Z,93303.47
2022-09-20T14:02:32.133Z,93305.59
2022-09-20T14:05:04.091Z,93308.97
2022-09-20T14:07:33.014Z,93302.28
2022-09-20T14:10:01.005Z,93297.06
2022-09-20T14:12:28.698Z,93296.03
2022-09-20T14:14:56.596Z,93306.00
2022-09-20T14:17:25.810Z,93306.16
2022-09-20T14:19:55.545Z,93299.06
2022-09-20T14:22:26.991Z,93300.87
2022-09-20T14:25:20.760Z,93306.22
2022-09-20T14:27:48.314Z,93297.06
2022-09-20T14:30:36.359Z,93303.59
2022-09-20T14:33:06.509Z,93304.84
2022-09-20T14:35:34.524Z,93293.22
2022-09-20T14:38:10.558Z,93296.56
2022-09-20T14:40:46.510Z,93304.94
2022-09-20T14:43:22.726Z,93299.13
2022-09-20T14:45:56.931Z,93299.41
2022-09-20T14:48:45.734Z,93292.81
2022-09-20T14:51:16.561Z,93306.19
2022-09-20T14:53:48.746Z,93300.59
2022-09-20T14:56:25.643Z,93314.59
2022-09-20T14:59:06.706Z,93311.28
2022-09-20T15:01:37.795Z,93315.41
2022-09-20T15:04:10.097Z,93318.81
2022-09-20T15:06:40.282Z,93312.19
2022-09-20T15:09:12.464Z,93311.94
2022-09-20T15:11:41.056Z,93311.44
2022-09-20T15:14:08.551Z,93314.47
2022-09-20T15:16:36.166Z,93320.16
2022-09-20T15:19:05.979Z,93315.91
2022-09-20T15:21:33.474Z,93313.62
2022-09-20T15:24:01.017Z,93312.34
2022-09-20T15:26:29.500Z,93313.31
2022-09-20T15:28:56.850Z,93317.00
2022-09-20T15:31:24.391Z,93314.84
2022-09-20T15:33:52.803Z,93311.56
2022-09-20T15:36:20.323Z,93313.31
2022-09-20T15:38:47.692Z,93311.69
2022-09-20T15:41:15.742Z,93319.09
2022-09-20T15:43:43.507Z,93317.09
2022-09-20T15:46:22.830Z,93330.59
2022-09-20T15:48:50.793Z,93331.13
2022-09-20T15:51:18.277Z,93326.09
2022-09-20T15:53:49.501Z,93341.91
2022-09-20T15:56:22.433Z,93340.66
2022-09-20T15:59:01.116Z,93346.81
2022-09-20T16:01:29.971Z,93346.84
2022-09-20T16:03:57.695Z,93347.56
2022-09-20T16:06:26.122Z,93347.97
2022-09-20T16:08:53.492Z,93344.56
2022-09-20T16:11:22.891Z,93349.34
2022-09-20T16:14:00.759Z,93348.31
2022-09-20T16:16:30.544Z,93339.03
2022-09-20T16:19:16.510Z,93352.00
2022-09-20T16:21:47.310Z,93343.31
2022-09-20T16:24:15.372Z,93349.38
2022-09-20T16:26:43.747Z,93350.16
2022-09-20T16:29:14.907Z,93347.50
2022-09-20T16:31:47.537Z,93354.37
2022-09-20T16:34:21.086Z,93364.63
2022-09-20T16:36:51.078Z,93366.47
2022-09-20T16:39:19.975Z,93361.91
2022-09-20T16:41:49.430Z,93367.97
2022-09-20T16:44:16.877Z,93361.34
2022-09-20T16:46:45.655Z,93376.59
2022-09-20T16:49:13.725Z,93381.38
2022-09-20T16:51:43.102Z,93383.25
2022-09-20T16:54:13.716Z,93388.22
2022-09-20T16:56:46.786Z,93386.38
2022-09-20T16:59:16.026Z,93383.44
2022-09-20T17:01:44.821Z,93387.38
2022-09-20T17:04:17.689Z,93388.84
2022-09-20T17:06:46.302Z,93390.38
2022-09-20T17:09:14.571Z,93391.97
2022-09-20T17:11:47.496Z,93396.97
2022-09-20T17:14:17.430Z,93394.16
2022-09-20T17:16:49.333Z,93402.69
2022-09-20T17:19:19.718Z,93409.75
2022-09-20T17:21:53.086Z,93413.50
2022-09-20T17:24:22.779Z,93412.12
2022-09-20T17:26:51.079Z,93405.56
2022-09-20T17:29:19.966Z,93416.47
2022-09-20T17:31:56.811Z,93417.75
2022-09-20T17:34:26.560Z,93426.56
2022-09-20T17:36:55.321Z,93420.94
2022-09-20T17:39:23.365Z,93425.16
2022-09-20T17:41:51.553Z,93425.72
2022-09-20T17:44:19.575Z,93425.72
2022-09-20T17:46:50.112Z,93429.84
2022-09-20T17:49:19.927Z,93432.34
2022-09-20T17:51:56.782Z,93430.06
2022-09-20T17:54:24.818Z,93435.47
2022-09-20T17:56:56.398Z,93437.56
2022-09-20T17:59:24.832Z,93438.50
2022-09-20T18:01:54.615Z,93442.94
2022-09-20T18:04:24.670Z,93442.81
2022-09-20T18:06:54.619Z,93441.13
2022-09-20T18:09:25.057Z,93441.78
2022-09-20T18:11:54.098Z,93442.09
2022-09-20T18:14:32.780Z,93451.91
2022-09-20T18:17:01.559Z,93450.56
2022-09-20T18:19:35.895Z,93450.38
2022-09-20T18:22:04.265Z,93449.13
2022-09-20T18:24:32.418Z,93455.81
2022-09-20T18:27:01.106Z,93450.31
2022-09-20T18:29:29.484Z,93458.19
2022-09-20T18:31:59.838Z,93469.41
2022-09-20T18:34:33.680Z,93465.81
2022-09-20T18:37:01.786Z,93469.72
2022-09-20T18:39:33.798Z,93471.06
2022-09-20T18:42:02.751Z,93471.06
2022-09-20T18:44:34.400Z,93465.34
2022-09-20T18:47:04.119Z,93472.06
2022-09-20T18:49:32.283Z,93472.72
2022-09-20T18:51:59.635Z,93472.50
2022-09-20T18:54:32.108Z,93473.09
2022-09-20T18:57:00.208Z,93472.56
2022-09-20T18:59:28.338Z,93474.69
2022-09-20T19:02:35.878Z,93478.34
2022-09-20T19:05:28.864Z,93486.09
2022-09-20T19:08:10.428Z,93487.88
2022-09-20T19:10:52.264Z,93477.97
2022-09-20T19:13:43.318Z,93479.00
2022-09-20T19:16:13.945Z,93477.56
2022-09-20T19:19:07.558Z,93480.84
2022-09-20T19:21:47.499Z,93483.81
2022-09-20T19:24:28.322Z,93478.03
2022-09-20T19:26:56.171Z,93482.88
2022-09-20T19:29:26.919Z,93487.47
2022-09-20T19:31:57.129Z,93481.00
2022-09-20T19:34:32.594Z,93479.66
2022-09-20T19:37:07.301Z,93482.78
2022-09-20T19:40:04.478Z,93476.34
2022-09-20T19:42:44.067Z,93480.06
2022-09-20T19:45:23.809Z,93483.06
2022-09-20T19:48:25.445Z,93474.66
2022-09-20T19:50:53.735Z,93475.75
2022-09-20T19:53:26.833Z,93479.50
2022-09-20T19:56:00.255Z,93483.38
2022-09-20T19:58:28.314Z,93480.34
2022-09-20T20:00:58.370Z,93491.37
2022-09-20T20:03:27.640Z,93500.03
2022-09-20T20:06:07.888Z,93493.44
2022-09-20T20:08:55.097Z,93492.75
2022-09-20T20:11:42.065Z,93498.19
2022-09-20T20:14:21.382Z,93494.44
2022-09-20T20:16:57.744Z,93500.53
2022-09-20T20:19:54.476Z,93500.00
2022-09-20T20:22:34.192Z,93497.28
2022-09-20T20:25:02.091Z,93499.78
2022-09-20T20:27:31.465Z,93497.56
2022-09-20T20:29:59.010Z,93506.97
2022-09-20T20:32:27.078Z,93506.41
2022-09-20T20:34:54.407Z,93512.22
2022-09-20T20:37:24.125Z,93503.91
2022-09-20T20:39:52.294Z,93510.75
2022-09-20T20:42:19.886Z,93508.00
2022-09-20T20:44:47.686Z,93512.66
2022-09-20T20:47:15.419Z,93508.88
2022-09-20T20:49:44.017Z,93515.63
2022-09-20T20:52:11.469Z,93509.84
2022-09-20T20:54:39.188Z,93513.34
2022-09-20T20:57:06.556Z,93509.28
2022-09-20T20:59:33.880Z,93513.19
2022-09-20T21:02:07.116Z,93506.22
2022-09-20T21:04:35.469Z,93508.72
2022-09-20T21:07:04.351Z,93510.66
2022-09-20T21:09:32.259Z,93506.84
2022-09-20T21:11:59.680Z,93507.16
2022-09-20T21:14:27.411Z,93515.22
2022-09-20T21:16:54.725Z,93507.37
2022-09-20T21:19:23.072Z,93508.59
2022-09-20T21:21:50.697Z,93516.09
2022-09-20T21:24:17.886Z,93520.00
2022-09-20T21:26:46.684Z,93524.06
2022-09-20T21:29:15.808Z,93523.59
2022-09-20T21:31:46.863Z,93517.59
2022-09-20T21:34:15.927Z,93516.38
2022-09-20T21:36:44.750Z,93521.44
2022-09-20T21:39:12.578Z,93518.38
2022-09-20T21:41:40.599Z,93520.25
2022-09-20T21:44:10.456Z,93518.66
2022-09-20T21:46:42.639Z,93513.09
2022-09-20T21:49:11.866Z,93519.47
2022-09-20T21:51:42.252Z,93517.06
2022-09-20T21:54:11.079Z,93532.63
2022-09-20T21:56:40.508Z,93531.72
2022-09-20T21:59:08.059Z,93516.00
2022-09-20T22:01:38.245Z,93522.69
2022-09-20T22:04:08.501Z,93515.72
2022-09-20T22:06:38.585Z,93517.38
2022-09-20T22:09:17.358Z,93511.16
2022-09-20T22:11:46.943Z,93508.97
2022-09-20T22:14:18.386Z,93505.19
2022-09-20T22:16:47.391Z,93513.59
2022-09-20T22:19:17.458Z,93509.53
2022-09-20T22:21:47.110Z,93517.81
2022-09-20T22:24:16.166Z,93524.16
2022-09-20T22:26:46.150Z,93515.81
2022-09-20T22:29:14.081Z,93510.44
2022-09-20T22:31:45.752Z,93517.59
2022-09-20T22:34:20.227Z,93519.19
2022-09-20T22:36:48.572Z,93521.97
2022-09-20T22:39:17.233Z,93521.28
2022-09-20T22:41:45.237Z,93525.38
2022-09-20T22:44:12.810Z,93529.00
2022-09-20T22:46:40.644Z,93525.19
2022-09-20T22:49:09.509Z,93524.81
2022-09-20T22:51:37.645Z,93523.44
2022-09-20T22:54:07.325Z,93524.81
2022-09-20T22:56:34.789Z,93528.72
2022-09-20T22:59:11.043Z,93521.59
2022-09-20T23:01:43.979Z,93522.44
2022-09-20T23:04:19.061Z,93524.91
2022-09-20T23:06:48.108Z,93513.44
2022-09-20T23:09:18.113Z,93523.31
2022-09-20T23:11:45.762Z,93526.97
2022-09-20T23:14:15.574Z,93518.09
2022-09-20T23:16:43.697Z,93521.97
2022-09-20T23:19:12.283Z,93511.72
2022-09-20T23:21:41.199Z,93511.16
2022-09-20T23:24:11.048Z,93503.00
2022-09-20T23:26:39.759Z,93508.88
2022-09-20T23:29:11.033Z,93507.19
2022-09-20T23:31:40.255Z,93507.84
2022-09-20T23:34:08.833Z,93507.84
2022-09-20T23:36:39.609Z,93509.16
2022-09-20T23:39:08.458Z,93509.78
2022-09-20T23:41:36.866Z,93509.75
2022-09-20T23:44:10.031Z,93505.50
2022-09-20T23:46:38.561Z,93506.72
2022-09-20T23:49:07.002Z,93500.00
2022-09-20T23:51:35.666Z,93496.28
2022-09-20T23:54:03.993Z,93499.81
2022-09-20T23:56:31.311Z,93495.19
2022-09-20T23:58:58.547Z,93497.81
